Timon, Brazil
Current Conditions -  °F | °C
As of 1:00 PM on Friday 28 Nov 2014 (Local Time) from SBTE Reporting Station
Scattered Clouds Scattered Clouds  
Wind Chill: 97°   Ceiling: Unl
Heat Index: 99°   Visibility: 6mi
Dew Point: 64°   Wind: 13mph
Humidity: 34%   Direction: 180°S
Pressure: 29.8"   Gusts: NA
Location:  5.1°S, 42.84°W
Report Text: SBTE 281600Z 18011KT 9999 SCT040 36/18 Q1009
Loading
Personal Weather Stations






























Interactive Weather Map New forecast layout! Learn more

10-Day Weather Forecast

Advertisements
Track Severe Weather on mobile